Time;durP1;ratioP1;P1;durP2;ratioP2;P2;SDS_P1;SDS_P2;PMS_P1;PMS_P2;Temp;Humidity;BMP_temperature;BMP_pressure;BME280_temperature;BME280_humidity;BME280_pressure;Samples;Min_cycle;Max_cycle;Signal;HPM_P1;HPM_P2
2023/06/07 00:01:20;;;;;;;10.67;3.83;;;14.30;99.90;;;;;;5043967;28;20902;-46
2023/06/07 00:03:47;;;;;;;8.73;3.50;;;14.30;99.90;;;;;;5046189;28;20191;-48
2023/06/07 00:06:16;;;;;;;7.60;3.80;;;14.30;99.90;;;;;;5042956;28;20195;-51
2023/06/07 00:08:44;;;;;;;8.13;3.77;;;14.20;99.90;;;;;;5040097;28;20800;-50
2023/06/07 00:11:11;;;;;;;6.17;3.70;;;14.20;99.90;;;;;;5011069;28;20208;-47
2023/06/07 00:13:37;;;;;;;8.10;4.77;;;14.20;99.90;;;;;;5046303;28;20662;-51
2023/06/07 00:16:05;;;;;;;8.83;4.30;;;14.20;99.90;;;;;;5036533;28;20227;-51
2023/06/07 00:18:32;;;;;;;9.70;4.43;;;14.10;99.90;;;;;;5038377;28;20218;-48
2023/06/07 00:20:59;;;;;;;6.70;3.83;;;14.00;99.90;;;;;;5042927;28;20230;-51
2023/06/07 00:23:28;;;;;;;8.60;4.00;;;14.00;99.90;;;;;;5037070;28;20183;-52
2023/06/07 00:25:56;;;;;;;10.33;4.20;;;14.00;99.90;;;;;;5023252;28;20217;-51
2023/06/07 00:28:23;;;;;;;10.13;3.83;;;13.90;99.90;;;;;;5034951;28;20331;-50
2023/06/07 00:30:50;;;;;;;8.87;4.80;;;13.80;99.90;;;;;;5038740;28;20201;-47
2023/06/07 00:33:17;;;;;;;9.23;4.27;;;13.70;99.90;;;;;;5042135;28;20203;-51
2023/06/07 00:35:43;;;;;;;6.73;4.33;;;13.70;99.90;;;;;;5041682;28;20192;-52
2023/06/07 00:38:11;;;;;;;13.90;4.37;;;13.60;99.90;;;;;;5034402;28;20282;-51
2023/06/07 00:40:39;;;;;;;9.47;4.07;;;13.60;99.90;;;;;;5026401;28;20211;-48
2023/06/07 00:43:07;;;;;;;13.13;4.47;;;13.60;99.90;;;;;;5028281;28;20281;-52
2023/06/07 00:45:34;;;;;;;8.17;4.17;;;13.60;99.90;;;;;;5024184;28;20574;-53
2023/06/07 00:48:03;;;;;;;11.30;4.20;;;13.60;99.90;;;;;;5042295;28;20218;-48
2023/06/07 00:50:30;;;;;;;11.70;4.60;;;13.50;99.90;;;;;;5037824;28;20399;-47
2023/06/07 00:52:57;;;;;;;11.97;4.13;;;13.40;99.90;;;;;;5039174;28;20573;-49
2023/06/07 00:55:25;;;;;;;6.93;4.00;;;13.30;99.90;;;;;;5044027;28;20404;-48
2023/06/07 00:57:54;;;;;;;8.70;4.43;;;13.30;99.90;;;;;;5015732;28;20235;-48
2023/06/07 01:00:22;;;;;;;11.87;4.93;;;13.20;99.90;;;;;;5033532;28;20199;-48
2023/06/07 01:03:11;;;;;;;10.10;4.23;;;13.20;99.90;;;;;;5030167;28;20214;-49
2023/06/07 01:05:38;;;;;;;13.10;4.57;;;13.10;99.90;;;;;;5037123;28;20657;-49
2023/06/07 01:08:09;;;;;;;12.53;4.43;;;13.10;99.90;;;;;;5039748;28;20215;-47
2023/06/07 01:10:37;;;;;;;5.70;3.80;;;13.00;99.90;;;;;;5042443;28;20199;-46
2023/06/07 01:13:05;;;;;;;10.87;4.10;;;13.00;99.90;;;;;;5020489;28;20219;-50
2023/06/07 01:15:33;;;;;;;7.47;3.80;;;13.00;99.90;;;;;;5033198;28;20200;-52
2023/06/07 01:18:01;;;;;;;8.87;4.70;;;12.90;99.90;;;;;;5029364;28;20223;-49
2023/06/07 01:20:30;;;;;;;10.00;4.47;;;12.90;99.90;;;;;;5039348;28;20275;-46
2023/06/07 01:23:02;;;;;;;14.27;4.30;;;12.90;99.90;;;;;;5042022;28;20210;-50
2023/06/07 01:25:30;;;;;;;8.83;4.20;;;12.80;99.90;;;;;;5042584;28;20666;-50
2023/06/07 01:28:00;;;;;;;11.73;5.07;;;12.70;99.90;;;;;;5022016;28;20232;-47
2023/06/07 01:30:31;;;;;;;11.20;4.90;;;12.70;99.90;;;;;;5034972;28;20306;-49
2023/06/07 01:32:59;;;;;;;8.70;4.60;;;;;;;;;;5027341;28;20227;-51
2023/06/07 01:35:32;;;;;;;9.23;5.03;;;;;;;;;;5042993;28;20207;-50
2023/06/07 01:38:03;;;;;;;8.83;4.60;;;;;;;;;;5041110;28;20269;-48
2023/06/07 01:40:34;;;;;;;9.87;4.70;;;12.60;99.90;;;;;;5043556;28;20275;-51
2023/06/07 01:43:01;;;;;;;11.83;4.70;;;12.50;99.90;;;;;;5029501;28;20192;-50
2023/06/07 01:45:29;;;;;;;12.13;4.67;;;;;;;;;;5023595;28;20207;-51
2023/06/07 01:47:57;;;;;;;7.40;4.40;;;12.40;99.90;;;;;;5029777;28;20238;-48
2023/06/07 01:50:24;;;;;;;14.43;5.57;;;12.40;99.90;;;;;;5043500;28;20258;-51
2023/06/07 01:52:52;;;;;;;14.40;5.23;;;12.40;99.90;;;;;;5042413;28;20628;-52
2023/06/07 01:55:21;;;;;;;11.73;5.47;;;12.40;99.90;;;;;;5041469;28;20226;-47
2023/06/07 01:57:58;;;;;;;14.03;5.03;;;12.40;99.90;;;;;;5040471;28;20720;-52
2023/06/07 02:00:53;;;;;;;13.17;5.53;;;12.40;99.90;;;;;;5020588;28;20202;-49
2023/06/07 02:03:27;;;;;;;10.80;4.97;;;12.40;99.90;;;;;;5030378;28;20191;-46
2023/06/07 02:05:59;;;;;;;14.37;5.07;;;12.30;99.90;;;;;;5042084;28;20188;-49
2023/06/07 02:08:31;;;;;;;9.63;4.40;;;12.20;99.90;;;;;;5039857;28;20300;-46
2023/06/07 02:10:59;;;;;;;13.83;5.23;;;12.20;99.90;;;;;;5042430;28;20192;-52
2023/06/07 02:13:34;;;;;;;14.07;5.17;;;12.20;99.90;;;;;;5012988;28;20223;-48
2023/06/07 02:16:04;;;;;;;13.10;4.80;;;12.10;99.90;;;;;;5031665;28;20194;-52
2023/06/07 02:18:50;;;;;;;9.37;5.00;;;12.10;99.90;;;;;;5030252;28;20218;-50
2023/06/07 02:21:17;;;;;;;16.53;6.07;;;12.00;99.90;;;;;;5039989;28;20193;-47
2023/06/07 02:23:44;;;;;;;12.97;5.27;;;12.00;99.90;;;;;;5043888;28;20195;-48
2023/06/07 02:26:11;;;;;;;13.00;5.67;;;11.90;99.90;;;;;;5035495;28;20840;-49
2023/06/07 02:28:40;;;;;;;15.00;5.93;;;11.90;99.90;;;;;;5034570;28;20199;-47
2023/06/07 02:31:07;;;;;;;13.97;4.97;;;11.90;99.90;;;;;;5010682;28;20572;-51
2023/06/07 02:33:34;;;;;;;12.20;5.67;;;11.90;99.90;;;;;;5033727;28;20227;-46
2023/06/07 02:36:02;;;;;;;8.43;5.47;;;11.80;99.90;;;;;;5034399;28;20208;-48
2023/06/07 02:38:29;;;;;;;11.63;5.13;;;11.80;99.90;;;;;;5042770;28;20215;-46
2023/06/07 02:40:56;;;;;;;12.80;5.13;;;11.80;99.90;;;;;;5036103;28;20629;-49
2023/06/07 02:43:25;;;;;;;13.10;5.07;;;11.80;99.90;;;;;;5037373;28;20225;-45
2023/06/07 02:45:53;;;;;;;15.47;5.57;;;11.80;99.90;;;;;;5023807;28;20211;-52
2023/06/07 02:48:21;;;;;;;10.77;6.23;;;11.80;99.90;;;;;;5024082;28;20243;-50
2023/06/07 02:50:49;;;;;;;10.90;5.03;;;11.70;99.90;;;;;;5035459;28;20238;-50
2023/06/07 02:53:16;;;;;;;13.90;5.23;;;11.70;99.90;;;;;;5037226;28;20281;-51
2023/06/07 02:55:43;;;;;;;15.53;5.33;;;11.60;99.90;;;;;;5034490;28;20204;-52
2023/06/07 02:58:10;;;;;;;11.63;5.83;;;11.70;99.90;;;;;;5037036;28;20204;-49
2023/06/07 03:00:39;;;;;;;15.83;5.83;;;11.60;99.90;;;;;;5022516;28;20214;-52
2023/06/07 03:03:12;;;;;;;12.20;5.30;;;11.70;99.90;;;;;;5030132;28;20183;-51
2023/06/07 03:05:46;;;;;;;16.37;5.47;;;11.70;99.90;;;;;;5028869;28;20207;-53
2023/06/07 03:08:14;;;;;;;10.03;5.03;;;11.60;99.90;;;;;;5032399;28;20268;-51
2023/06/07 03:10:43;;;;;;;14.17;5.83;;;11.70;99.90;;;;;;5035905;28;20241;-50
2023/06/07 03:13:13;;;;;;;12.50;5.30;;;11.60;99.90;;;;;;5032453;28;20338;-52
2023/06/07 03:15:45;;;;;;;11.80;4.80;;;11.60;99.90;;;;;;5041180;28;20292;-48
2023/06/07 03:18:15;;;;;;;15.73;5.60;;;11.70;99.90;;;;;;5014197;28;20215;-53
2023/06/07 03:20:45;;;;;;;13.27;5.90;;;11.60;99.90;;;;;;5031918;28;20199;-48
2023/06/07 03:23:16;;;;;;;10.57;5.47;;;11.60;99.90;;;;;;5024737;28;20847;-53
2023/06/07 03:25:48;;;;;;;10.10;5.50;;;11.60;99.90;;;;;;5038042;28;20646;-47
2023/06/07 03:28:22;;;;;;;10.40;5.27;;;11.60;99.90;;;;;;5039128;28;20294;-47
2023/06/07 03:30:50;;;;;;;13.97;5.80;;;11.50;99.90;;;;;;5037548;28;20207;-56
2023/06/07 03:33:25;;;;;;;11.33;5.97;;;11.50;99.90;;;;;;5029085;28;20226;-48
2023/06/07 03:35:53;;;;;;;9.93;4.87;;;11.60;99.90;;;;;;5023650;28;20308;-54
2023/06/07 03:38:29;;;;;;;14.13;5.30;;;11.50;99.90;;;;;;5032752;28;20222;-49
2023/06/07 03:40:57;;;;;;;12.80;5.10;;;11.50;99.90;;;;;;5040027;28;20285;-52
2023/06/07 03:43:24;;;;;;;11.13;5.10;;;11.50;99.90;;;;;;5040320;28;20180;-47
2023/06/07 03:45:51;;;;;;;12.30;4.83;;;11.50;99.90;;;;;;5040770;28;20203;-49
2023/06/07 03:48:41;;;;;;;15.67;5.47;;;11.60;99.90;;;;;;5019686;28;20721;-49
2023/06/07 03:51:09;;;;;;;11.40;5.87;;;11.60;99.90;;;;;;5024095;28;20211;-47
2023/06/07 03:53:36;;;;;;;12.17;5.53;;;11.60;99.90;;;;;;5032175;28;20222;-50
2023/06/07 03:56:03;;;;;;;15.27;5.83;;;11.50;99.90;;;;;;5039697;28;20214;-52
2023/06/07 03:58:32;;;;;;;16.07;5.77;;;11.40;99.90;;;;;;5040351;28;20226;-50
2023/06/07 04:01:07;;;;;;;12.27;5.60;;;11.40;99.90;;;;;;5037878;28;20898;-48
2023/06/07 04:03:34;;;;;;;13.70;5.80;;;11.30;99.90;;;;;;5008133;28;20713;-52
2023/06/07 04:06:08;;;;;;;8.93;5.50;;;11.30;99.90;;;;;;5032883;28;20984;-49
2023/06/07 04:08:37;;;;;;;12.37;5.60;;;11.20;99.90;;;;;;5031870;28;20306;-52
2023/06/07 04:11:04;;;;;;;10.00;5.20;;;11.20;99.90;;;;;;5044688;28;20293;-47
2023/06/07 04:13:30;;;;;;;11.60;5.37;;;11.20;99.90;;;;;;5043679;28;20208;-54
2023/06/07 04:15:58;;;;;;;6.80;5.57;;;11.30;99.90;;;;;;5033114;28;20223;-51
2023/06/07 04:18:26;;;;;;;14.73;5.43;;;11.20;99.90;;;;;;5011364;28;20280;-53
2023/06/07 04:20:54;;;;;;;10.67;5.50;;;11.20;99.90;;;;;;5022361;28;20203;-46
2023/06/07 04:23:22;;;;;;;10.10;5.40;;;11.20;99.90;;;;;;5030367;28;20198;-54
2023/06/07 04:25:54;;;;;;;11.83;5.50;;;11.20;99.90;;;;;;5039264;28;20281;-49
2023/06/07 04:28:23;;;;;;;7.77;5.97;;;11.20;99.90;;;;;;5041364;28;20222;-52
2023/06/07 04:30:53;;;;;;;11.20;5.80;;;11.10;99.90;;;;;;5044525;28;20199;-51
2023/06/07 04:33:23;;;;;;;9.73;5.70;;;11.00;99.90;;;;;;5036616;28;20212;-52
2023/06/07 04:35:51;;;;;;;27.10;6.13;;;11.00;99.90;;;;;;5025161;28;20207;-46
2023/06/07 04:38:21;;;;;;;8.77;5.33;;;11.00;99.90;;;;;;5029875;28;20223;-54
2023/06/07 04:40:53;;;;;;;9.77;5.67;;;11.00;99.90;;;;;;5038962;28;20290;-46
2023/06/07 04:43:35;;;;;;;8.77;5.30;;;10.90;99.90;;;;;;5037932;28;20195;-52
2023/06/07 04:46:02;;;;;;;7.33;5.17;;;11.00;99.90;;;;;;5037879;28;20686;-49
2023/06/07 04:48:31;;;;;;;7.90;5.53;;;11.00;99.90;;;;;;5036947;28;20243;-48
2023/06/07 04:51:04;;;;;;;5.50;4.47;;;11.00;99.90;;;;;;5019639;28;20219;-48
2023/06/07 04:53:36;;;;;;;6.73;5.40;;;11.10;99.90;;;;;;5027288;28;20227;-49
2023/06/07 04:56:26;;;;;;;9.60;5.53;;;11.20;99.90;;;;;;5035967;28;20218;-52
2023/06/07 04:58:55;;;;;;;6.77;4.87;;;11.10;99.90;;;;;;5039564;28;20860;-49
2023/06/07 05:01:25;;;;;;;8.53;5.47;;;11.10;99.90;;;;;;5034197;28;20191;-52
2023/06/07 05:04:16;;;;;;;6.20;5.27;;;11.10;99.90;;;;;;5054187;28;20198;-51
2023/06/07 05:06:49;;;;;;;8.00;4.97;;;11.20;99.90;;;;;;5019110;28;20218;-51
2023/06/07 05:09:17;;;;;;;7.57;5.50;;;11.30;99.90;;;;;;5038692;28;20199;-54
2023/06/07 05:11:45;;;;;;;11.73;5.27;;;11.30;99.90;;;;;;5031439;28;20290;-53
2023/06/07 05:14:12;;;;;;;11.73;5.17;;;11.10;99.90;;;;;;5043097;28;20218;-51
2023/06/07 05:16:43;;;;;;;6.37;4.50;;;11.10;99.90;;;;;;5041360;28;20219;-52
2023/06/07 05:19:10;;;;;;;6.07;5.10;;;11.00;99.90;;;;;;5051138;28;20669;-53
2023/06/07 05:21:39;;;;;;;7.07;4.73;;;11.10;99.90;;;;;;5026066;28;20212;-52
2023/06/07 05:24:07;;;;;;;6.73;4.53;;;11.10;99.90;;;;;;5036870;28;20289;-54
2023/06/07 05:26:34;;;;;;;4.97;4.23;;;11.20;99.90;;;;;;5024025;28;20207;-50
2023/06/07 05:29:02;;;;;;;6.40;4.60;;;11.20;99.90;;;;;;5037052;28;20767;-48
2023/06/07 05:31:30;;;;;;;4.83;4.27;;;11.20;99.90;;;;;;5037823;28;20850;-48
2023/06/07 05:33:57;;;;;;;8.77;4.90;;;11.30;99.90;;;;;;5045254;28;20223;-51
2023/06/07 05:36:25;;;;;;;4.83;4.33;;;11.30;99.90;;;;;;5018651;28;20246;-49
2023/06/07 05:38:52;;;;;;;8.47;4.83;;;11.30;99.90;;;;;;5037566;28;20199;-50
2023/06/07 05:41:19;;;;;;;5.40;4.10;;;11.40;99.90;;;;;;5024893;28;20288;-55
2023/06/07 05:43:47;;;;;;;5.80;4.80;;;11.50;99.90;;;;;;5053746;28;20203;-47
2023/06/07 05:46:15;;;;;;;7.87;4.97;;;11.50;99.90;;;;;;5033290;28;20463;-52
2023/06/07 05:48:43;;;;;;;5.57;4.97;;;11.50;99.90;;;;;;5035533;28;20231;-53
2023/06/07 05:51:14;;;;;;;5.30;4.80;;;11.60;99.90;;;;;;5021481;28;20289;-47
2023/06/07 05:53:41;;;;;;;6.47;4.93;;;11.50;99.90;;;;;;5031397;28;20226;-52
2023/06/07 05:56:10;;;;;;;6.80;5.20;;;11.40;99.90;;;;;;5025223;28;21024;-47
2023/06/07 05:58:59;;;;;;;6.17;4.83;;;11.40;99.90;;;;;;5034211;28;20214;-54
2023/06/07 06:01:29;;;;;;;5.13;4.60;;;11.10;99.90;;;;;;5043516;28;20192;-50
2023/06/07 06:03:56;;;;;;;5.97;5.10;;;11.20;99.90;;;;;;5040627;28;20192;-54
2023/06/07 06:06:23;;;;;;;5.60;5.10;;;11.30;99.90;;;;;;5024131;28;20215;-51
2023/06/07 06:08:51;;;;;;;6.37;5.37;;;11.30;99.90;;;;;;5022767;28;20203;-52
2023/06/07 06:11:19;;;;;;;5.60;5.10;;;11.20;99.90;;;;;;5029978;28;20258;-49
2023/06/07 06:13:48;;;;;;;6.17;5.67;;;11.00;99.90;;;;;;5037464;28;20215;-52
2023/06/07 06:16:15;;;;;;;5.90;5.33;;;11.00;99.90;;;;;;5041756;28;20187;-50
2023/06/07 06:18:44;;;;;;;7.23;5.40;;;11.10;99.90;;;;;;5044147;28;20218;-48
2023/06/07 06:21:10;;;;;;;7.77;5.90;;;11.20;99.90;;;;;;5038943;28;20191;-51
2023/06/07 06:23:38;;;;;;;6.03;5.43;;;11.30;99.90;;;;;;5012348;28;20199;-49
2023/06/07 06:26:05;;;;;;;7.77;6.20;;;11.40;99.90;;;;;;5029808;28;20183;-46
2023/06/07 06:28:33;;;;;;;6.80;6.10;;;11.50;99.90;;;;;;5036504;28;20309;-50
2023/06/07 06:31:01;;;;;;;6.53;5.90;;;11.60;99.90;;;;;;5040286;28;20920;-55
2023/06/07 06:33:28;;;;;;;7.00;5.67;;;11.70;99.90;;;;;;5044227;28;20211;-49
2023/06/07 06:35:57;;;;;;;6.83;5.97;;;11.70;99.90;;;;;;5036627;28;20199;-53
2023/06/07 06:38:24;;;;;;;8.60;5.87;;;11.80;99.90;;;;;;5012317;28;20208;-49
2023/06/07 06:40:52;;;;;;;7.57;6.57;;;11.80;99.90;;;;;;5034255;28;20231;-52
2023/06/07 06:43:19;;;;;;;9.93;6.70;;;11.80;99.90;;;;;;5041986;28;20198;-51
2023/06/07 06:45:50;;;;;;;8.07;6.60;;;11.90;99.90;;;;;;5034854;28;20731;-51
2023/06/07 06:48:18;;;;;;;9.97;7.20;;;12.00;99.90;;;;;;5041394;28;20308;-47
2023/06/07 06:50:47;;;;;;;7.70;6.30;;;12.00;99.90;;;;;;5034009;28;20278;-53
2023/06/07 06:53:15;;;;;;;7.07;6.37;;;12.10;99.90;;;;;;5017266;28;23701;-48
2023/06/07 06:55:43;;;;;;;9.13;6.27;;;12.20;99.90;;;;;;5034543;28;20207;-52
2023/06/07 06:58:10;;;;;;;10.37;6.37;;;12.30;99.90;;;;;;5034867;28;20207;-49
2023/06/07 07:00:38;;;;;;;8.07;5.73;;;12.40;99.90;;;;;;5036442;28;20207;-48
2023/06/07 07:03:06;;;;;;;8.47;5.47;;;12.40;99.90;;;;;;5035391;28;20217;-52
2023/06/07 07:05:32;;;;;;;8.80;6.20;;;12.50;99.90;;;;;;5035182;28;20187;-52
2023/06/07 07:08:03;;;;;;;8.47;5.73;;;12.50;99.90;;;;;;5021737;28;20298;-55
2023/06/07 07:10:31;;;;;;;6.87;6.07;;;12.60;99.90;;;;;;5036317;28;20823;-51
2023/06/07 07:13:19;;;;;;;8.63;6.07;;;12.80;99.90;;;;;;5037794;28;20206;-50
2023/06/07 07:15:47;;;;;;;9.00;5.73;;;12.90;99.90;;;;;;5036024;28;20304;-54
2023/06/07 07:18:15;;;;;;;7.00;5.83;;;12.90;99.90;;;;;;5033239;28;20199;-53
2023/06/07 07:20:41;;;;;;;10.83;6.60;;;13.00;99.90;;;;;;5039018;28;20200;-50
2023/06/07 07:23:08;;;;;;;6.97;5.63;;;13.10;99.90;;;;;;5039512;28;20184;-51
2023/06/07 07:25:37;;;;;;;5.70;4.97;;;13.20;99.90;;;;;;5020032;28;20275;-52
2023/06/07 07:28:04;;;;;;;7.20;5.20;;;13.20;99.90;;;;;;5031518;28;20874;-50
2023/06/07 07:30:31;;;;;;;10.60;6.53;;;13.20;99.90;;;;;;5032228;28;20952;-52
2023/06/07 07:33:00;;;;;;;11.20;5.43;;;13.60;99.90;;;;;;5032873;28;20765;-50
2023/06/07 07:35:27;;;;;;;8.27;5.27;;;13.60;99.90;;;;;;5041236;28;20693;-47
2023/06/07 07:37:54;;;;;;;10.33;5.40;;;13.60;99.90;;;;;;5040857;28;20217;-56
2023/06/07 07:40:21;;;;;;;8.63;5.43;;;13.60;99.90;;;;;;5021920;28;20208;-47
2023/06/07 07:42:49;;;;;;;9.70;5.77;;;13.70;99.90;;;;;;5036728;28;20207;-50
2023/06/07 07:45:16;;;;;;;8.30;4.87;;;13.90;99.90;;;;;;5027388;28;20183;-52
2023/06/07 07:47:45;;;;;;;7.60;5.40;;;14.00;99.90;;;;;;5018522;28;20242;-53
2023/06/07 07:50:11;;;;;;;8.70;5.30;;;14.10;99.90;;;;;;5040252;28;20274;-46
2023/06/07 07:52:40;;;;;;;8.00;5.10;;;14.30;99.90;;;;;;5036627;28;20199;-47
2023/06/07 07:55:08;;;;;;;11.07;4.97;;;14.40;99.90;;;;;;5041979;28;20203;-46
2023/06/07 07:57:35;;;;;;;8.27;5.27;;;14.50;99.90;;;;;;5024651;28;20238;-49
2023/06/07 08:00:25;;;;;;;8.93;4.83;;;14.60;99.90;;;;;;5037948;28;20214;-49
2023/06/07 08:03:13;;;;;;;11.87;5.20;;;14.60;99.90;;;;;;5036592;28;20206;-49
2023/06/07 08:05:41;;;;;;;10.87;5.77;;;14.60;99.90;;;;;;5046324;28;20191;-49
2023/06/07 08:08:08;;;;;;;6.77;4.43;;;14.70;99.90;;;;;;5037400;28;20549;-49
2023/06/07 08:10:38;;;;;;;7.40;5.20;;;14.80;99.90;;;;;;5046955;28;20188;-46
2023/06/07 08:13:05;;;;;;;10.00;5.20;;;15.00;99.90;;;;;;5004581;28;20541;-49
2023/06/07 08:15:33;;;;;;;10.60;5.80;;;15.10;99.90;;;;;;5035819;28;20216;-48
2023/06/07 08:18:03;;;;;;;6.40;4.00;;;15.20;99.90;;;;;;5032700;28;20215;-48
2023/06/07 08:20:30;;;;;;;9.20;4.90;;;15.30;99.90;;;;;;5046763;28;20188;-53
2023/06/07 08:22:57;;;;;;;9.63;5.20;;;15.50;99.90;;;;;;5043278;28;20772;-51
2023/06/07 08:25:24;;;;;;;7.30;4.80;;;15.60;99.90;;;;;;5044475;28;20690;-53
2023/06/07 08:27:51;;;;;;;6.23;4.60;;;15.60;99.90;;;;;;5013914;28;20234;-54
2023/06/07 08:30:18;;;;;;;7.23;4.30;;;15.70;99.90;;;;;;5030679;28;20947;-48
2023/06/07 08:32:46;;;;;;;7.50;4.20;;;15.90;99.90;;;;;;5044686;28;20275;-50
2023/06/07 08:35:13;;;;;;;7.53;4.17;;;16.10;99.90;;;;;;5037774;28;20945;-46
2023/06/07 08:37:41;;;;;;;9.63;4.40;;;16.20;99.90;;;;;;5046041;28;20642;-47
2023/06/07 08:40:09;;;;;;;7.50;4.10;;;16.30;99.90;;;;;;5038341;28;20184;-49
2023/06/07 08:42:39;;;;;;;9.53;4.50;;;16.40;99.90;;;;;;5012819;28;20211;-48
2023/06/07 08:45:07;;;;;;;8.17;4.67;;;16.50;99.90;;;;;;5028755;28;20287;-50
2023/06/07 08:47:34;;;;;;;8.23;3.90;;;16.60;99.90;;;;;;5045858;28;20314;-48
2023/06/07 08:50:04;;;;;;;11.90;4.40;;;16.70;99.90;;;;;;5034507;28;20910;-52
2023/06/07 08:52:32;;;;;;;10.03;5.00;;;16.90;99.90;;;;;;5044387;28;20199;-48
2023/06/07 08:55:05;;;;;;;9.60;4.30;;;16.80;99.90;;;;;;5025672;28;20211;-51
2023/06/07 08:57:33;;;;;;;9.07;4.10;;;17.00;99.90;;;;;;5039543;28;20219;-47
2023/06/07 09:00:03;;;;;;;11.43;4.63;;;17.20;99.90;;;;;;5016945;28;20692;-51
2023/06/07 09:02:52;;;;;;;11.73;4.90;;;17.30;99.90;;;;;;5042790;28;20260;-52
2023/06/07 09:05:22;;;;;;;9.67;3.93;;;17.50;99.90;;;;;;5035945;28;20916;-49
2023/06/07 09:07:49;;;;;;;6.47;3.87;;;17.60;99.90;;;;;;5039706;28;20305;-52
2023/06/07 09:10:17;;;;;;;8.20;4.30;;;17.60;99.90;;;;;;5036188;28;20203;-53
2023/06/07 09:12:46;;;;;;;6.97;4.37;;;17.70;99.90;;;;;;5044299;28;20200;-52
2023/06/07 09:15:18;;;;;;;7.00;3.90;;;17.60;99.90;;;;;;5009466;28;21286;-47
2023/06/07 09:17:51;;;;;;;11.47;4.63;;;17.60;99.90;;;;;;5034823;28;20231;-53
2023/06/07 09:20:23;;;;;;;10.67;4.00;;;17.80;99.90;;;;;;5030919;28;20206;-52
2023/06/07 09:22:58;;;;;;;11.27;4.47;;;17.90;99.90;;;;;;5034340;28;20210;-53
2023/06/07 09:25:25;;;;;;;9.13;3.90;;;18.10;99.90;;;;;;5037665;28;20281;-49
2023/06/07 09:27:53;;;;;;;8.53;3.90;;;18.20;99.90;;;;;;5029317;28;20303;-50
2023/06/07 09:30:20;;;;;;;7.80;4.30;;;18.40;99.90;;;;;;5015389;28;20245;-51
2023/06/07 09:32:49;;;;;;;6.77;3.83;;;18.40;99.90;;;;;;5041853;28;20215;-53
2023/06/07 09:35:17;;;;;;;7.00;4.00;;;18.50;99.90;;;;;;5029558;28;20272;-53
2023/06/07 09:37:48;;;;;;;8.20;4.33;;;18.60;99.90;;;;;;5021029;28;21176;-53
2023/06/07 09:40:16;;;;;;;8.73;4.93;;;18.80;99.90;;;;;;5030284;28;21024;-47
2023/06/07 09:42:44;;;;;;;11.03;4.50;;;18.90;99.90;;;;;;5032823;28;20195;-46
2023/06/07 09:45:13;;;;;;;7.33;4.23;;;18.90;99.90;;;;;;5015459;28;20203;-51
2023/06/07 09:47:43;;;;;;;9.90;5.00;;;19.00;99.90;;;;;;5023433;28;20242;-47
2023/06/07 09:50:12;;;;;;;8.60;4.73;;;19.10;99.90;;;;;;5033592;28;20401;-49
2023/06/07 09:52:40;;;;;;;8.33;4.67;;;19.00;99.90;;;;;;5023793;28;20278;-51
2023/06/07 09:55:24;;;;;;;12.33;4.70;;;19.10;99.90;;;;;;5033527;28;20665;-47
2023/06/07 09:57:52;;;;;;;8.70;4.10;;;19.20;99.90;;;;;;5032589;28;20218;-47
2023/06/07 10:00:20;;;;;;;8.70;4.00;;;19.40;99.90;;;;;;5014281;28;20322;-52
2023/06/07 10:02:48;;;;;;;14.27;4.87;;;19.50;99.90;;;;;;5029915;28;20282;-50
2023/06/07 10:05:17;;;;;;;8.33;5.20;;;19.60;99.90;;;;;;5030455;28;20198;-54
2023/06/07 10:07:46;;;;;;;8.20;4.97;;;19.80;99.90;;;;;;5024455;28;20299;-49
2023/06/07 10:10:17;;;;;;;9.83;5.30;;;19.80;99.90;;;;;;5038795;28;20295;-49
2023/06/07 10:12:46;;;;;;;7.00;5.20;;;20.00;99.90;;;;;;5030901;28;20226;-52
2023/06/07 10:15:15;;;;;;;9.13;6.23;;;20.10;99.90;;;;;;5028887;28;20811;-53
2023/06/07 10:17:50;;;;;;;8.07;5.23;;;20.20;99.90;;;;;;5006412;28;20861;-49
2023/06/07 10:20:27;;;;;;;6.60;5.57;;;20.30;99.90;;;;;;5032674;28;20349;-49
2023/06/07 10:22:59;;;;;;;8.80;6.10;;;20.40;99.90;;;;;;5027323;28;20199;-50
2023/06/07 10:25:30;;;;;;;7.87;5.80;;;20.50;99.90;;;;;;5030301;28;20200;-53
2023/06/07 10:28:09;;;;;;;7.63;5.83;;;20.50;99.90;;;;;;5038999;28;20219;-51
2023/06/07 10:30:40;;;;;;;10.40;6.43;;;20.60;99.90;;;;;;5024756;28;20204;-48
2023/06/07 10:33:09;;;;;;;8.07;5.20;;;20.70;99.90;;;;;;5012648;28;20211;-50
2023/06/07 10:35:37;;;;;;;9.53;5.77;;;20.80;99.90;;;;;;5030937;28;20227;-50
2023/06/07 10:38:05;;;;;;;6.70;4.03;;;20.90;99.90;;;;;;5024246;28;20341;-51
2023/06/07 10:40:33;;;;;;;7.73;4.27;;;21.00;99.70;;;;;;5033712;28;20199;-52
2023/06/07 10:43:00;;;;;;;9.60;4.40;;;21.10;99.50;;;;;;5027759;28;20191;-52
2023/06/07 10:45:27;;;;;;;7.10;4.30;;;21.30;99.20;;;;;;5031145;28;20194;-51
2023/06/07 10:47:54;;;;;;;6.30;3.50;;;21.40;98.90;;;;;;5014866;28;20286;-47
2023/06/07 10:50:46;;;;;;;5.03;3.57;;;21.50;98.50;;;;;;5035930;28;20207;-50
2023/06/07 10:53:14;;;;;;;6.97;3.40;;;21.50;98.10;;;;;;5029156;28;20665;-53
2023/06/07 10:55:43;;;;;;;7.27;3.90;;;21.50;97.70;;;;;;5029480;28;20227;-51
2023/06/07 10:58:27;;;;;;;7.50;3.20;;;21.50;97.70;;;;;;5033470;28;20215;-53
2023/06/07 11:00:56;;;;;;;7.50;3.73;;;21.50;97.90;;;;;;5031843;28;20184;-48
2023/06/07 11:03:41;;;;;;;5.67;3.63;;;21.80;97.40;;;;;;5020795;28;20213;-50
2023/06/07 11:06:09;;;;;;;5.57;4.10;;;21.80;96.30;;;;;;5020928;28;20198;-54
2023/06/07 11:08:37;;;;;;;6.87;3.43;;;21.70;96.90;;;;;;5019499;28;20219;-51
2023/06/07 11:11:52;;;;;;;4.03;2.97;;;21.80;96.30;;;;;;5041122;28;20684;-53
2023/06/07 11:14:20;;;;;;;6.10;2.80;;;21.90;95.30;;;;;;5036995;28;20192;-50
2023/06/07 11:16:46;;;;;;;6.20;3.47;;;22.00;95.90;;;;;;5019462;28;20231;-49
2023/06/07 11:19:16;;;;;;;5.87;2.97;;;22.00;95.80;;;;;;5023901;28;21434;-50
2023/06/07 11:22:06;;;;;;;4.07;2.97;;;22.00;95.60;;;;;;5035047;28;20199;-50
2023/06/07 11:24:38;;;;;;;6.70;3.10;;;22.00;95.20;;;;;;5031685;28;20206;-50
2023/06/07 11:27:14;;;;;;;7.47;3.40;;;22.00;95.50;;;;;;5031951;28;20211;-49
2023/06/07 11:29:42;;;;;;;5.83;3.20;;;22.10;94.50;;;;;;5029951;28;20666;-48
2023/06/07 11:32:10;;;;;;;5.03;3.00;;;22.30;94.00;;;;;;5013660;28;20341;-46
2023/06/07 11:34:37;;;;;;;3.85;2.63;;;22.50;93.20;;;;;;5039919;28;20195;-47
2023/06/07 11:37:13;;;;;;;2.90;2.42;;;22.60;92.30;;;;;;5037059;28;20980;-53
2023/06/07 11:39:40;;;;;;;4.97;2.47;;;22.60;91.40;;;;;;5034658;28;20206;-47
2023/06/07 11:42:07;;;;;;;4.53;2.57;;;22.50;91.50;;;;;;5032351;28;20183;-52
2023/06/07 11:44:36;;;;;;;7.23;3.07;;;22.40;91.90;;;;;;5035344;28;20253;-48
2023/06/07 11:47:05;;;;;;;4.13;2.97;;;22.50;91.50;;;;;;5019718;28;21787;-51
2023/06/07 11:49:33;;;;;;;3.20;2.30;;;22.60;90.60;;;;;;5035542;28;20192;-54
2023/06/07 11:52:01;;;;;;;5.47;2.50;;;22.80;90.50;;;;;;5036387;28;20275;-51
2023/06/07 11:54:28;;;;;;;4.80;2.67;;;22.90;90.20;;;;;;5041024;28;20264;-49
2023/06/07 11:56:55;;;;;;;3.35;2.45;;;23.10;88.70;;;;;;5024356;28;20230;-51
2023/06/07 11:59:23;;;;;;;5.63;3.25;;;23.00;89.40;;;;;;5039694;28;20658;-49
2023/06/07 12:01:55;;;;;;;3.00;2.33;;;23.30;88.20;;;;;;5033470;28;20207;-53
2023/06/07 12:04:24;;;;;;;5.47;2.70;;;23.40;86.00;;;;;;5031579;28;20211;-50
2023/06/07 12:06:51;;;;;;;6.80;2.60;;;23.40;86.90;;;;;;5031617;28;20211;-54
2023/06/07 12:09:19;;;;;;;3.33;2.20;;;23.40;86.40;;;;;;5034890;28;20260;-51
2023/06/07 12:11:47;;;;;;;3.22;2.28;;;23.40;85.50;;;;;;5029781;28;20207;-53
2023/06/07 12:14:34;;;;;;;5.07;2.30;;;23.40;84.70;;;;;;5040188;28;20232;-48
2023/06/07 12:17:02;;;;;;;3.63;2.67;;;23.40;83.40;;;;;;5016430;28;20241;-53
2023/06/07 12:19:29;;;;;;;6.25;3.00;;;23.50;83.00;;;;;;5025279;28;20227;-48
2023/06/07 12:22:09;;;;;;;7.97;3.13;;;23.60;82.50;;;;;;5035708;28;20208;-53
2023/06/07 12:24:40;;;;;;;3.95;2.25;;;23.70;83.60;;;;;;5032263;28;20196;-48
2023/06/07 12:27:11;;;;;;;4.25;2.83;;;23.90;82.20;;;;;;5031697;28;20288;-48
2023/06/07 12:29:39;;;;;;;5.53;2.67;;;23.80;81.20;;;;;;5042315;28;20196;-48
2023/06/07 12:32:10;;;;;;;4.20;2.60;;;23.80;82.70;;;;;;5039010;28;20203;-50
2023/06/07 12:34:43;;;;;;;4.82;2.83;;;23.90;81.40;;;;;;5016070;28;20220;-53
2023/06/07 12:37:11;;;;;;;5.35;2.92;;;23.90;80.60;;;;;;5031200;28;20935;-52
2023/06/07 12:39:37;;;;;;;6.28;2.95;;;23.90;80.40;;;;;;5041292;28;20218;-48
2023/06/07 12:42:06;;;;;;;8.10;3.08;;;24.10;80.30;;;;;;5035826;28;20915;-47
2023/06/07 12:44:33;;;;;;;2.80;2.47;;;24.30;79.70;;;;;;5045848;28;20662;-47
2023/06/07 12:47:00;;;;;;;6.53;2.95;;;24.70;78.80;;;;;;5042384;28;20587;-53
2023/06/07 12:49:28;;;;;;;4.80;2.50;;;24.90;77.20;;;;;;5015830;28;20196;-52
2023/06/07 12:51:55;;;;;;;5.50;3.08;;;24.90;75.50;;;;;;5025139;28;20195;-48
2023/06/07 12:54:22;;;;;;;4.65;2.50;;;25.00;75.00;;;;;;5041963;28;20195;-47
2023/06/07 12:56:49;;;;;;;4.63;2.85;;;24.90;75.00;;;;;;5034598;28;20223;-53
2023/06/07 12:59:16;;;;;;;3.38;2.85;;;25.20;74.30;;;;;;5041259;28;20196;-51